Terminal Aerodrome Forecast
Issued by NWS Louisville, KY

Home | Current Version | Previous Version | Text Only | Print | Product List | Glossary On
Versions: 1 2 3 4 5 6 7 8 9 10 11 12 13 14 15 16 17 18 19
000
FTUS43 KLMK 180207 AAA
TAFBWG
TAF AMD
KBWG 180207Z 1802/1824 29007KT P6SM BKN022
      TEMPO 1803/1807 BKN015
     FM180700 29005KT P6SM BKN015
      TEMPO 1811/1815 BKN009
     FM181600 VRB03KT P6SM FEW025 SCT250=

USA.gov is the U.S. government's official web portal to all federal, state and local government web resources and services.